Terminal Aerodrome Forecast
Issued by NWS

Home | Current Version | Previous Version | Text Only | Print | Product List | Glossary On
Versions: 1 2 3 4 5 6 7 8 9 10 11 12 13 14 15 16 17 18 19 20
599
FTUS43 KOAX 240708 AAA
TAFSNY
TAF AMD
KSNY 240708Z 2407/2506 01018KT 5SM -SN BR SCT010 OVC040
      TEMPO 2407/2410 2SM -SN BR OVC010
     FM241000 01013KT 2SM -SN BR BKN012 OVC025
     FM241600 02008KT P6SM OVC035
     FM242100 32005KT P6SM OVC050=

USA.gov is the U.S. government's official web portal to all federal, state and local government web resources and services.